• Join FlightAware (Why Join?)
  • Login
  • US Flag 
02:47AM EDT


 

Airport Tracker/Info


-or-


 

Live Flight TrackerFlight Track Log ✈ SWA385 ✈ 16-Jul-2013 ✈ KIAD - KMDW

Flight Track Log - Related Links

Times and Time Zones

All times are in EDT time to prevent confusion due to time zone crossing. See the SWA385 flight status page for this flight to view local times or setup timezone preferences in your user account.

Time Position Orientation Groundspeed Altitude Reporting Facility
EDT Latitude Longitude Course Direction KTS MPH feet Rate Location/Type
05:25PM 38.9333 -77.5333 270° West 198 228 2,500  Level Potomac TRACON
05:26PM 38.9333 -77.6333 270° West 246 283 4,700 2,160 Climbing Potomac TRACON
05:27PM 38.9328 -77.6758 269° West 266 306 5,900 2,820 Climbing Washington Center
05:28PM 38.9372 -77.7772 273° West 292 336 9,100 3,120 Climbing Washington Center
05:29PM 38.9417 -77.8842 273° West 298 343 12,200 2,640 Climbing Washington Center
05:30PM 38.9478 -77.9992 274° West 316 364 14,400 2,640 Climbing Washington Center
05:31PM 38.9500 -78.2289 270° West  Level FlightAware Approximate
05:31PM 38.9556 -78.1303 274° West 345 397 17,400  Level Washington Center
05:32PM 38.9628 -78.2667 274° West 370 426 19,700 2,400 Climbing Washington Center
05:33PM 38.9658 -78.4136 272° West 396 456 22,400 2,580 Climbing Washington Center
05:34PM 38.9706 -78.5606 272° West 411 473 24,800 2,280 Climbing Washington Center
05:35PM 38.9750 -78.7156 272° West 428 493 27,000 1,980 Climbing Washington Center
05:36PM 38.9792 -78.8761 272° West 441 507 28,900 1,680 Climbing Washington Center
05:37PM 38.9869 -79.0367 274° West 446 513 30,500 1,620 Climbing Washington Center
05:38PM 38.9989 -79.2028 275° West 463 533 32,200 1,260 Climbing Washington Center
05:39PM 39.0125 -79.3719 276° West 468 539 33,000 360 Climbing Washington Center
05:40PM 39.0236 -79.5408 275° West 473 544 33,000 780 Level Washington Center
05:41PM 39.0408 -79.7100 278° West 480 552 34,600 1,620 Climbing Washington Center
05:42PM 39.0519 -79.8711 275° West 475 547 36,300 1,680 Climbing Washington Center
05:42PM 39.0544 -79.9575 272° West 459 528 37,200 1,500 Climbing Indianapolis Center
05:43PM 39.0656 -80.1183 275° West 462 532 38,700 1,260 Climbing Indianapolis Center
05:44PM 39.0764 -80.2786 275° West 456 525 39,900 600 Climbing Indianapolis Center
05:45PM 39.0883 -80.4400 275° West 454 522 40,000  Climbing Indianapolis Center
05:46PM 39.0975 -80.6014 274° West 453 521 40,000  Level Indianapolis Center
05:47PM 39.1192 -80.7942 278° West 458 527 40,000  Level Indianapolis Center
05:49PM 39.1811 -80.9328 300° West 452 520 40,000  Level Indianapolis Center
05:50PM 39.2428 -81.0744 299° West 454 522 40,000  Level Indianapolis Center
05:51PM 39.3061 -81.2153 300° West 458 527 40,000  Level Indianapolis Center
05:52PM 39.3703 -81.3564 300° West 459 528 40,000  Level Indianapolis Center
05:53PM 39.4331 -81.4983 300° West 458 527 40,000  Level Indianapolis Center
05:54PM 39.5089 -81.6708 300° West 461 531 40,000  Level Indianapolis Center
05:55PM 39.5725 -81.8133 300° West 458 527 40,000  Level Indianapolis Center
05:56PM 39.6347 -81.9581 299° West 460 529 40,000  Level Indianapolis Center
05:57PM 39.6992 -82.1014 300° West 461 531 40,000 -60 Level Indianapolis Center
05:58PM 39.7681 -82.2603 299° West 464 534 39,900 -60 Descending Indianapolis Center
05:59PM 39.8317 -82.4083 299° West 467 537 39,900  Level Indianapolis Center
06:00PM 39.8964 -82.5572 300° West 468 539 39,900  Level Indianapolis Center
06:01PM 39.9589 -82.7033 299° West 462 532 39,900  Level Indianapolis Center
06:02PM 40.0211 -82.8489 299° West 459 528 39,900  Level Indianapolis Center
06:03PM 40.0933 -83.0192 299° West 458 527 39,900  Level Indianapolis Center
06:04PM 40.1547 -83.1656 299° West 459 528 39,900  Level Indianapolis Center
06:05PM 40.2169 -83.3117 299° West 460 529 39,900  Level Indianapolis Center
06:06PM 40.2786 -83.4600 299° West 463 533 39,900  Level Indianapolis Center
06:07PM 40.3414 -83.6100 299° West 467 537 39,900  Level Indianapolis Center
06:08PM 40.4025 -83.7600 298° West 466 536 39,900 -360 Level Indianapolis Center
06:09PM 40.4736 -83.9336 298° West 462 532 39,200 -840 Descending Indianapolis Center
06:10PM 40.5350 -84.0814 299° West 459 528 38,200 -960 Descending Indianapolis Center
06:11PM 40.5967 -84.2322 298° West 464 534 37,300 -1,980 Descending Indianapolis Center
06:12PM 40.6583 -84.3828 298° West 465 535 34,200 -3,240 Descending Indianapolis Center
06:13PM 40.7214 -84.5392 298° West 477 549 30,700 -2,100 Descending Indianapolis Center
06:14PM 40.7828 -84.6931 298° West 472 543 29,900 -420 Descending Indianapolis Center
06:15PM 40.8442 -84.8478 298° West 471 542 29,900  Level Indianapolis Center
06:16PM 40.9036 -84.9967 298° West 462 532 30,000 -180 Climbing Indianapolis Center
06:17PM 40.9817 -85.1758 300° West 470 541 29,600 -660 Descending Indianapolis Center
06:18PM 41.0889 -85.2728 326° Northwest 475 547 28,700 -960 Descending Indianapolis Center
06:19PM 41.2019 -85.3633 329° Northwest 478 550 27,700 -1,020 Descending Indianapolis Center
06:21PM 41.3142 -85.4517 329° Northwest 474 545 26,700 -1,140 Descending Indianapolis Center
06:22PM 41.4211 -85.5367 329° Northwest 455 524 25,400 -1,800 Descending Indianapolis Center
06:23PM 41.5100 -85.6381 320° Northwest 439 505 23,000 -2,520 Descending Indianapolis Center
06:24PM 41.5192 -85.8164 274° West 411 473 20,300 -2,400 Descending Indianapolis Center
06:25PM 41.5233 -85.9603 272° West 397 457 18,200 -2,160 Descending Indianapolis Center
06:26PM 41.5236 -86.1528 270° West 375 432 15,000 -2,220 Descending Chicago Center
06:27PM 41.5231 -86.2886 270° West 366 421 12,700 -1,920 Descending Chicago Center
06:28PM 41.5228 -86.4442 270° West 351 404 11,100 -1,260 Descending Chicago Center
06:29PM 41.5219 -86.5678 270° West 336 387 10,200 -540 Descending Chicago Center
06:30PM 41.5203 -86.6825 269° West 313 360 10,100 -60 Descending Chicago Center
06:31PM 41.5197 -86.7953 270° West 287 330 10,100 -240 Level Chicago Center
06:32PM 41.5186 -86.9003 269° West 286 329 9,700 -780 Descending Chicago Center
06:33PM 41.5219 -87.0022 273° West 279 321 8,500 -1,140 Descending Chicago Center
06:34PM 41.5475 -87.1008 289° West 282 325 7,400 -1,140 Descending Chicago Center
06:35PM 41.5758 -87.2167 288° West 277 319 6,200 -1,080 Descending Chicago Center
06:36PM 41.5981 -87.3128 287° West 275 316 5,200 -960 Descending Chicago Center
06:38PM 41.6211 -87.4078 288° West 273 314 4,200 -600 Descending Chicago Center
06:39PM 41.6428 -87.5006 287° West 269 310 4,000 -120 Descending Chicago Center
06:40PM 41.6736 -87.5983 293° West 253 291 4,000 -540 Level Chicago Center
06:41PM 41.7142 -87.6508 316° Northwest 222 255 2,900 -960 Descending Chicago Center
06:42PM 41.7553 -87.6708 340° North 196 226 2,100 -540 Descending Chicago Center
06:43PM 41.7961 -87.6619 North 174 200 1,900 -300 Descending Chicago Center
06:44PM 41.8175 -87.7031 305° West 151 174 1,500 -480 Descending Chicago Center
06:45PM 41.7944 -87.7453 234° Southwest 139 160 1,000 -540 Descending Chicago Center